Kennedy Space Center, Florida
Current Conditions -  °F | °C
As of 3:58 PM on Saturday 20 Dec 2014 (Local Time) from KTTS Reporting Station
Scattered Clouds Scattered Clouds  
Wind Chill: 73°   Ceiling: Unl
Heat Index: 73°   Visibility: 10mi
Dew Point: 62°   Wind: 7mph
Humidity: 67%   Direction: 110°ESE
Pressure: 30.05"   Gusts: NA
Location:  28.62°N, 80.68°W
Report Text: KTTS 202058Z AUTO 11006KT 10SM SCT130 23/17 A3005 RMK AO2 SLP179 T02290165 56008
Loading
Personal Weather Stations






























Interactive Weather Map New forecast layout! Learn more

10-Day Weather Forecast

Advertisements
Track Severe Weather on mobile